sensor_id;sensor_type;location;lat;lon;timestamp;pressure;altitude;pressure_sealevel;temperature;humidity
13312;BME280;34033;48.672;9.376;2023-02-22T00:00:35;98488.09;;;8.03;63.18
13312;BME280;34033;48.672;9.376;2023-02-22T00:03:13;98490.44;;;8.01;62.99
13312;BME280;34033;48.672;9.376;2023-02-22T00:05:43;98485.97;;;7.96;63.25
13312;BME280;34033;48.672;9.376;2023-02-22T00:08:15;98490.69;;;7.92;63.96
13312;BME280;34033;48.672;9.376;2023-02-22T00:10:40;98494.28;;;7.93;63.31
13312;BME280;34033;48.672;9.376;2023-02-22T00:13:08;98490.25;;;7.90;63.98
13312;BME280;34033;48.672;9.376;2023-02-22T00:15:34;98488.22;;;7.87;64.16
13312;BME280;34033;48.672;9.376;2023-02-22T00:18:00;98479.78;;;7.84;63.62
13312;BME280;34033;48.672;9.376;2023-02-22T00:20:25;98481.22;;;7.74;64.30
13312;BME280;34033;48.672;9.376;2023-02-22T00:22:51;98489.94;;;7.73;64.34
13312;BME280;34033;48.672;9.376;2023-02-22T00:25:20;98482.78;;;7.72;64.96
13312;BME280;34033;48.672;9.376;2023-02-22T00:27:46;98483.50;;;7.69;64.58
13312;BME280;34033;48.672;9.376;2023-02-22T00:30:22;98485.84;;;7.67;64.94
13312;BME280;34033;48.672;9.376;2023-02-22T00:32:49;98485.00;;;7.63;64.92
13312;BME280;34033;48.672;9.376;2023-02-22T00:35:17;98478.19;;;7.60;64.65
13312;BME280;34033;48.672;9.376;2023-02-22T00:37:49;98476.09;;;7.53;65.23
13312;BME280;34033;48.672;9.376;2023-02-22T00:40:21;98471.13;;;7.43;65.35
13312;BME280;34033;48.672;9.376;2023-02-22T00:42:46;98473.41;;;7.38;65.23
13312;BME280;34033;48.672;9.376;2023-02-22T00:45:15;98469.81;;;7.37;65.10
13312;BME280;34033;48.672;9.376;2023-02-22T00:47:41;98474.94;;;7.35;65.08
13312;BME280;34033;48.672;9.376;2023-02-22T00:50:06;98480.00;;;7.30;65.19
13312;BME280;34033;48.672;9.376;2023-02-22T00:52:32;98475.59;;;7.29;65.04
13312;BME280;34033;48.672;9.376;2023-02-22T00:54:57;98469.97;;;7.25;65.01
13312;BME280;34033;48.672;9.376;2023-02-22T00:57:24;98467.00;;;7.15;65.47
13312;BME280;34033;48.672;9.376;2023-02-22T00:59:49;98466.63;;;7.16;65.37
13312;BME280;34033;48.672;9.376;2023-02-22T01:02:15;98464.56;;;7.13;65.89
13312;BME280;34033;48.672;9.376;2023-02-22T01:04:41;98459.00;;;7.13;65.64
13312;BME280;34033;48.672;9.376;2023-02-22T01:07:06;98465.88;;;7.19;66.13
13312;BME280;34033;48.672;9.376;2023-02-22T01:09:32;98462.38;;;7.22;65.86
13312;BME280;34033;48.672;9.376;2023-02-22T01:11:57;98461.94;;;7.20;65.08
13312;BME280;34033;48.672;9.376;2023-02-22T01:14:24;98459.63;;;7.22;65.59
13312;BME280;34033;48.672;9.376;2023-02-22T01:16:54;98461.59;;;7.22;65.56
13312;BME280;34033;48.672;9.376;2023-02-22T01:19:21;98460.38;;;7.23;65.90
13312;BME280;34033;48.672;9.376;2023-02-22T01:21:47;98461.59;;;7.22;65.92
13312;BME280;34033;48.672;9.376;2023-02-22T01:24:14;98460.38;;;7.23;65.75
13312;BME280;34033;48.672;9.376;2023-02-22T01:26:48;98454.78;;;7.19;65.03
13312;BME280;34033;48.672;9.376;2023-02-22T01:29:15;98458.31;;;7.16;65.39
13312;BME280;34033;48.672;9.376;2023-02-22T01:31:43;98450.69;;;7.13;65.70
13312;BME280;34033;48.672;9.376;2023-02-22T01:34:15;98449.97;;;7.16;65.85
13312;BME280;34033;48.672;9.376;2023-02-22T01:36:41;98453.47;;;7.13;65.09
13312;BME280;34033;48.672;9.376;2023-02-22T01:39:07;98455.38;;;7.09;64.75
13312;BME280;34033;48.672;9.376;2023-02-22T01:41:34;98451.78;;;7.08;64.98
13312;BME280;34033;48.672;9.376;2023-02-22T01:44:28;98439.72;;;7.01;65.07
13312;BME280;34033;48.672;9.376;2023-02-22T01:46:55;98442.50;;;7.01;65.62
13312;BME280;34033;48.672;9.376;2023-02-22T01:49:22;98438.41;;;6.95;65.16
13312;BME280;34033;48.672;9.376;2023-02-22T01:51:52;98439.19;;;6.95;65.33
13312;BME280;34033;48.672;9.376;2023-02-22T01:54:36;98439.19;;;6.95;66.01
13312;BME280;34033;48.672;9.376;2023-02-22T01:57:08;98430.88;;;6.95;65.46
13312;BME280;34033;48.672;9.376;2023-02-22T01:59:37;98425.69;;;6.94;64.93
13312;BME280;34033;48.672;9.376;2023-02-22T02:02:04;98424.38;;;6.88;65.30
13312;BME280;34033;48.672;9.376;2023-02-22T02:04:30;98426.25;;;6.84;65.89
13312;BME280;34033;48.672;9.376;2023-02-22T02:06:59;98422.31;;;6.85;65.31
13312;BME280;34033;48.672;9.376;2023-02-22T02:11:57;98420.50;;;6.73;66.05
13312;BME280;34033;48.672;9.376;2023-02-22T02:14:25;98425.00;;;6.62;66.16
13312;BME280;34033;48.672;9.376;2023-02-22T02:16:52;98423.84;;;6.63;66.56
13312;BME280;34033;48.672;9.376;2023-02-22T02:22:26;98426.41;;;6.52;66.58
13312;BME280;34033;48.672;9.376;2023-02-22T02:36:16;98408.13;;;6.51;66.96
13312;BME280;34033;48.672;9.376;2023-02-22T02:39:07;98405.00;;;6.53;66.94
13312;BME280;34033;48.672;9.376;2023-02-22T02:41:49;98401.41;;;6.52;66.65
13312;BME280;34033;48.672;9.376;2023-02-22T02:44:32;98399.78;;;6.51;66.64
13312;BME280;34033;48.672;9.376;2023-02-22T02:47:05;98393.44;;;6.51;66.63
13312;BME280;34033;48.672;9.376;2023-02-22T02:49:41;98385.91;;;6.51;66.57
13312;BME280;34033;48.672;9.376;2023-02-22T02:52:09;98387.09;;;6.50;66.25
13312;BME280;34033;48.672;9.376;2023-02-22T02:54:39;98374.75;;;6.48;66.08
13312;BME280;34033;48.672;9.376;2023-02-22T02:57:05;98378.63;;;6.43;66.09
13312;BME280;34033;48.672;9.376;2023-02-22T02:59:33;98378.63;;;6.43;66.88
13312;BME280;34033;48.672;9.376;2023-02-22T03:07:23;98365.72;;;6.35;65.82
13312;BME280;34033;48.672;9.376;2023-02-22T03:13:32;98365.38;;;6.37;67.03
13312;BME280;34033;48.672;9.376;2023-02-22T03:26:20;98350.47;;;6.25;65.82
13312;BME280;34033;48.672;9.376;2023-02-22T03:28:50;98364.00;;;6.27;65.93
13312;BME280;34033;48.672;9.376;2023-02-22T03:31:24;98356.81;;;6.26;66.64
13312;BME280;34033;48.672;9.376;2023-02-22T03:34:24;98344.84;;;6.22;66.36
13312;BME280;34033;48.672;9.376;2023-02-22T03:37:13;98354.97;;;6.14;66.08
13312;BME280;34033;48.672;9.376;2023-02-22T03:39:41;98349.28;;;6.07;66.56
13312;BME280;34033;48.672;9.376;2023-02-22T03:42:10;98349.94;;;6.01;67.39
13312;BME280;34033;48.672;9.376;2023-02-22T03:44:39;98349.19;;;6.04;67.23
13312;BME280;34033;48.672;9.376;2023-02-22T03:47:09;98353.59;;;6.05;66.74
13312;BME280;34033;48.672;9.376;2023-02-22T03:49:41;98350.88;;;6.08;67.14
13312;BME280;34033;48.672;9.376;2023-02-22T03:52:10;98351.69;;;6.09;67.95
13312;BME280;34033;48.672;9.376;2023-02-22T03:54:37;98360.09;;;6.12;67.53
13312;BME280;34033;48.672;9.376;2023-02-22T03:57:07;98358.13;;;6.13;67.85
13312;BME280;34033;48.672;9.376;2023-02-22T03:59:35;98357.69;;;6.11;67.85
13312;BME280;34033;48.672;9.376;2023-02-22T04:02:00;98356.78;;;6.07;67.86
13312;BME280;34033;48.672;9.376;2023-02-22T04:04:26;98348.03;;;6.05;68.41
13312;BME280;34033;48.672;9.376;2023-02-22T04:06:51;98353.94;;;6.03;68.22
13312;BME280;34033;48.672;9.376;2023-02-22T04:09:17;98353.13;;;6.03;68.86
13312;BME280;34033;48.672;9.376;2023-02-22T04:11:43;98359.78;;;5.98;68.38
13312;BME280;34033;48.672;9.376;2023-02-22T04:14:08;98354.34;;;6.40;80.12
13312;BME280;34033;48.672;9.376;2023-02-22T04:16:33;98350.63;;;6.33;70.52
13312;BME280;34033;48.672;9.376;2023-02-22T04:18:59;98352.88;;;6.27;68.19
13312;BME280;34033;48.672;9.376;2023-02-22T04:21:24;98352.72;;;6.20;67.73
13312;BME280;34033;48.672;9.376;2023-02-22T04:23:49;98351.75;;;6.12;67.70
13312;BME280;34033;48.672;9.376;2023-02-22T04:26:15;98346.66;;;6.14;75.23
13312;BME280;34033;48.672;9.376;2023-02-22T04:28:41;98341.75;;;6.08;69.69
13312;BME280;34033;48.672;9.376;2023-02-22T04:31:06;98345.25;;;6.05;68.02
13312;BME280;34033;48.672;9.376;2023-02-22T04:33:32;98343.59;;;6.00;67.41
13312;BME280;34033;48.672;9.376;2023-02-22T04:35:57;98337.22;;;6.00;67.45
13312;BME280;34033;48.672;9.376;2023-02-22T04:38:24;98347.81;;;5.94;67.45
13312;BME280;34033;48.672;9.376;2023-02-22T04:40:53;98346.53;;;5.92;67.47
13312;BME280;34033;48.672;9.376;2023-02-22T04:43:19;98347.28;;;5.89;67.34
13312;BME280;34033;48.672;9.376;2023-02-22T04:45:44;98342.41;;;5.85;66.83
13312;BME280;34033;48.672;9.376;2023-02-22T04:48:10;98339.75;;;5.73;67.38
13312;BME280;34033;48.672;9.376;2023-02-22T04:50:35;98338.22;;;5.76;67.75
13312;BME280;34033;48.672;9.376;2023-02-22T04:53:01;98335.81;;;5.74;67.57
13312;BME280;34033;48.672;9.376;2023-02-22T04:55:26;98341.22;;;5.67;67.09
13312;BME280;34033;48.672;9.376;2023-02-22T04:57:52;98335.66;;;5.67;67.53
13312;BME280;34033;48.672;9.376;2023-02-22T05:00:18;98339.25;;;5.68;68.38
13312;BME280;34033;48.672;9.376;2023-02-22T05:02:46;98338.44;;;5.67;68.21
13312;BME280;34033;48.672;9.376;2023-02-22T05:05:19;98342.03;;;5.68;68.34
13312;BME280;34033;48.672;9.376;2023-02-22T05:07:46;98334.34;;;5.96;74.15
13312;BME280;34033;48.672;9.376;2023-02-22T05:10:12;98332.28;;;6.28;71.10
13312;BME280;34033;48.672;9.376;2023-02-22T05:12:37;98323.13;;;6.47;67.26
13312;BME280;34033;48.672;9.376;2023-02-22T05:15:05;98321.75;;;6.98;75.58
13312;BME280;34033;48.672;9.376;2023-02-22T05:17:31;98322.56;;;6.99;67.60
13312;BME280;34033;48.672;9.376;2023-02-22T05:19:56;98319.34;;;6.97;65.62
13312;BME280;34033;48.672;9.376;2023-02-22T05:22:21;98322.44;;;6.92;65.45
13312;BME280;34033;48.672;9.376;2023-02-22T05:24:48;98325.97;;;6.89;65.25
13312;BME280;34033;48.672;9.376;2023-02-22T05:27:16;98331.78;;;6.84;65.59
13312;BME280;34033;48.672;9.376;2023-02-22T05:29:41;98321.06;;;6.82;66.70
13312;BME280;34033;48.672;9.376;2023-02-22T05:32:07;98325.50;;;6.87;66.72
13312;BME280;34033;48.672;9.376;2023-02-22T05:34:32;98324.19;;;6.81;66.91
13312;BME280;34033;48.672;9.376;2023-02-22T05:36:57;98327.44;;;6.83;66.39
13312;BME280;34033;48.672;9.376;2023-02-22T05:39:23;98320.66;;;6.84;65.64
13312;BME280;34033;48.672;9.376;2023-02-22T05:41:48;98318.34;;;6.86;64.32
13312;BME280;34033;48.672;9.376;2023-02-22T05:44:14;98318.94;;;6.76;64.74
13312;BME280;34033;48.672;9.376;2023-02-22T05:46:39;98317.59;;;6.66;65.07
13312;BME280;34033;48.672;9.376;2023-02-22T05:49:04;98314.72;;;6.62;65.00
13312;BME280;34033;48.672;9.376;2023-02-22T05:51:30;98312.38;;;6.64;65.26
13312;BME280;34033;48.672;9.376;2023-02-22T05:53:55;98307.59;;;6.61;64.49
13312;BME280;34033;48.672;9.376;2023-02-22T05:56:22;98312.25;;;6.57;63.39
13312;BME280;34033;48.672;9.376;2023-02-22T05:58:48;98316.66;;;6.39;63.76
13312;BME280;34033;48.672;9.376;2023-02-22T06:01:14;98309.84;;;6.37;64.04
13312;BME280;34033;48.672;9.376;2023-02-22T06:03:39;98314.16;;;6.34;64.76
13312;BME280;34033;48.672;9.376;2023-02-22T06:06:04;98311.09;;;6.39;64.27
13312;BME280;34033;48.672;9.376;2023-02-22T06:08:30;98315.41;;;6.37;64.18
13312;BME280;34033;48.672;9.376;2023-02-22T06:10:55;98314.53;;;6.33;64.37
13312;BME280;34033;48.672;9.376;2023-02-22T06:13:20;98313.44;;;6.37;64.40
13312;BME280;34033;48.672;9.376;2023-02-22T06:15:46;98313.50;;;6.41;64.52
13312;BME280;34033;48.672;9.376;2023-02-22T06:18:11;98312.56;;;6.33;64.59
13312;BME280;34033;48.672;9.376;2023-02-22T06:20:36;98309.84;;;6.37;65.34
13312;BME280;34033;48.672;9.376;2023-02-22T06:23:02;98314.66;;;6.40;65.12
13312;BME280;34033;48.672;9.376;2023-02-22T06:25:29;98309.63;;;6.45;64.93
13312;BME280;34033;48.672;9.376;2023-02-22T06:27:58;98308.91;;;6.48;64.31
13312;BME280;34033;48.672;9.376;2023-02-22T06:30:25;98307.59;;;6.42;64.18
13312;BME280;34033;48.672;9.376;2023-02-22T06:32:50;98314.94;;;6.35;64.55
13312;BME280;34033;48.672;9.376;2023-02-22T06:35:16;98313.44;;;6.37;64.32
13312;BME280;34033;48.672;9.376;2023-02-22T06:37:42;98314.91;;;6.31;65.00
13312;BME280;34033;48.672;9.376;2023-02-22T06:40:09;98314.09;;;6.31;65.38
13312;BME280;34033;48.672;9.376;2023-02-22T06:42:35;98313.38;;;6.34;65.52
13312;BME280;34033;48.672;9.376;2023-02-22T06:45:01;98316.56;;;6.36;65.53
13312;BME280;34033;48.672;9.376;2023-02-22T06:47:26;98322.28;;;6.43;66.01
13312;BME280;34033;48.672;9.376;2023-02-22T06:49:53;98318.41;;;6.47;66.00
13312;BME280;34033;48.672;9.376;2023-02-22T06:52:18;98326.38;;;6.49;65.26
13312;BME280;34033;48.672;9.376;2023-02-22T06:54:44;98322.03;;;6.51;65.48
13312;BME280;34033;48.672;9.376;2023-02-22T06:57:09;98330.75;;;6.50;65.34
13312;BME280;34033;48.672;9.376;2023-02-22T06:59:35;98327.59;;;6.51;65.60
13312;BME280;34033;48.672;9.376;2023-02-22T07:02:00;98325.72;;;6.55;65.64
13312;BME280;34033;48.672;9.376;2023-02-22T07:04:28;98320.56;;;6.57;65.78
13312;BME280;34033;48.672;9.376;2023-02-22T07:06:53;98321.38;;;6.58;66.38
13312;BME280;34033;48.672;9.376;2023-02-22T07:09:18;98323.13;;;6.66;66.10
13312;BME280;34033;48.672;9.376;2023-02-22T07:11:43;98322.75;;;6.67;65.74
13312;BME280;34033;48.672;9.376;2023-02-22T07:14:09;98320.41;;;6.69;65.97
13312;BME280;34033;48.672;9.376;2023-02-22T07:16:35;98321.59;;;6.68;65.86
13312;BME280;34033;48.672;9.376;2023-02-22T07:19:00;98320.47;;;6.73;65.96
13312;BME280;34033;48.672;9.376;2023-02-22T07:21:27;98322.19;;;6.78;65.70
13312;BME280;34033;48.672;9.376;2023-02-22T07:23:54;98315.13;;;6.84;65.75
13312;BME280;34033;48.672;9.376;2023-02-22T07:26:21;98313.22;;;6.88;65.58
13312;BME280;34033;48.672;9.376;2023-02-22T07:28:48;98311.25;;;6.88;65.72
13312;BME280;34033;48.672;9.376;2023-02-22T07:31:13;98318.41;;;6.89;65.43
13312;BME280;34033;48.672;9.376;2023-02-22T07:33:39;98316.41;;;6.90;65.80
13312;BME280;34033;48.672;9.376;2023-02-22T07:36:04;98312.31;;;7.03;66.01
13312;BME280;34033;48.672;9.376;2023-02-22T07:38:30;98307.41;;;7.19;65.74
13312;BME280;34033;48.672;9.376;2023-02-22T07:40:55;98319.03;;;7.25;65.22
13312;BME280;34033;48.672;9.376;2023-02-22T07:43:24;98316.31;;;7.28;64.92
13312;BME280;34033;48.672;9.376;2023-02-22T07:45:51;98316.88;;;7.37;65.16
13312;BME280;34033;48.672;9.376;2023-02-22T07:48:18;98319.06;;;7.51;64.55
13312;BME280;34033;48.672;9.376;2023-02-22T07:50:44;98315.13;;;7.52;63.76
13312;BME280;34033;48.672;9.376;2023-02-22T07:53:49;98315.56;;;7.54;63.83
13312;BME280;34033;48.672;9.376;2023-02-22T07:56:07;98310.88;;;7.62;64.08
13312;BME280;34033;48.672;9.376;2023-02-22T07:58:33;98302.97;;;7.64;64.08
13312;BME280;34033;48.672;9.376;2023-02-22T08:00:59;98314.94;;;7.68;63.86
13312;BME280;34033;48.672;9.376;2023-02-22T08:03:30;98306.28;;;7.73;64.17
13312;BME280;34033;48.672;9.376;2023-02-22T08:05:58;98312.78;;;7.80;64.25
13312;BME280;34033;48.672;9.376;2023-02-22T08:08:24;98311.28;;;7.86;63.83
13312;BME280;34033;48.672;9.376;2023-02-22T08:10:51;98306.50;;;7.87;63.59
13312;BME280;34033;48.672;9.376;2023-02-22T08:13:17;98306.28;;;7.99;63.58
13312;BME280;34033;48.672;9.376;2023-02-22T08:15:42;98311.56;;;8.08;63.68
13312;BME280;34033;48.672;9.376;2023-02-22T08:18:14;98306.91;;;8.15;62.98
13312;BME280;34033;48.672;9.376;2023-02-22T08:20:41;98313.34;;;8.23;62.80
13312;BME280;34033;48.672;9.376;2023-02-22T08:23:08;98309.53;;;8.31;62.73
13312;BME280;34033;48.672;9.376;2023-02-22T08:25:34;98313.19;;;8.38;62.04
13312;BME280;34033;48.672;9.376;2023-02-22T08:28:09;98315.25;;;8.45;62.23
13312;BME280;34033;48.672;9.376;2023-02-22T08:30:35;98312.53;;;8.49;61.64
13312;BME280;34033;48.672;9.376;2023-02-22T08:33:02;98316.44;;;8.44;61.95
13312;BME280;34033;48.672;9.376;2023-02-22T08:35:29;98310.59;;;8.53;62.18
13312;BME280;34033;48.672;9.376;2023-02-22T08:37:58;98312.19;;;8.54;62.26
13312;BME280;34033;48.672;9.376;2023-02-22T08:40:26;98303.97;;;8.68;62.11
13312;BME280;34033;48.672;9.376;2023-02-22T08:42:52;98304.47;;;8.77;61.63
13312;BME280;34033;48.672;9.376;2023-02-22T08:45:18;98306.16;;;8.85;62.06
13312;BME280;34033;48.672;9.376;2023-02-22T08:47:44;98307.78;;;8.86;60.80
13312;BME280;34033;48.672;9.376;2023-02-22T08:50:24;98311.81;;;8.92;61.46
13312;BME280;34033;48.672;9.376;2023-02-22T08:52:54;98308.34;;;9.02;60.91
13312;BME280;34033;48.672;9.376;2023-02-22T08:55:24;98311.94;;;9.06;60.49
13312;BME280;34033;48.672;9.376;2023-02-22T08:57:50;98299.69;;;9.14;60.13
13312;BME280;34033;48.672;9.376;2023-02-22T09:00:17;98299.38;;;9.27;60.22
13312;BME280;34033;48.672;9.376;2023-02-22T09:02:43;98299.09;;;9.39;60.36
13312;BME280;34033;48.672;9.376;2023-02-22T09:05:08;98306.81;;;9.59;59.74
13312;BME280;34033;48.672;9.376;2023-02-22T09:07:34;98303.34;;;9.73;59.04
13312;BME280;34033;48.672;9.376;2023-02-22T09:09:59;98301.81;;;9.83;59.01
13312;BME280;34033;48.672;9.376;2023-02-22T09:12:24;98301.88;;;9.93;58.37
13312;BME280;34033;48.672;9.376;2023-02-22T09:14:50;98289.63;;;10.09;58.13
13312;BME280;34033;48.672;9.376;2023-02-22T09:17:15;98295.34;;;10.30;58.20
13312;BME280;34033;48.672;9.376;2023-02-22T09:19:40;98292.16;;;10.38;57.60
13312;BME280;34033;48.672;9.376;2023-02-22T09:22:06;98295.00;;;10.49;57.50
13312;BME280;34033;48.672;9.376;2023-02-22T09:24:31;98296.25;;;10.62;57.44
13312;BME280;34033;48.672;9.376;2023-02-22T09:26:56;98290.72;;;10.87;58.68
13312;BME280;34033;48.672;9.376;2023-02-22T09:29:26;98274.75;;;10.87;56.99
13312;BME280;34033;48.672;9.376;2023-02-22T09:31:53;98282.69;;;10.64;55.84
13312;BME280;34033;48.672;9.376;2023-02-22T09:34:20;98281.06;;;10.56;56.74
13312;BME280;34033;48.672;9.376;2023-02-22T09:36:47;98280.25;;;10.59;57.25
13312;BME280;34033;48.672;9.376;2023-02-22T09:39:14;98283.09;;;10.66;56.95
13312;BME280;34033;48.672;9.376;2023-02-22T09:45:05;98277.19;;;11.00;57.03
13312;BME280;34033;48.672;9.376;2023-02-22T09:47:42;98272.81;;;11.13;55.87
13312;BME280;34033;48.672;9.376;2023-02-22T09:50:14;98283.59;;;11.25;56.34
13312;BME280;34033;48.672;9.376;2023-02-22T09:57:50;98273.19;;;11.71;55.84
13312;BME280;34033;48.672;9.376;2023-02-22T10:00:22;98272.00;;;11.76;55.13
13312;BME280;34033;48.672;9.376;2023-02-22T10:06:10;98266.00;;;11.88;54.43
13312;BME280;34033;48.672;9.376;2023-02-22T10:08:36;98263.63;;;11.80;54.60
13312;BME280;34033;48.672;9.376;2023-02-22T10:16:32;98252.22;;;12.40;55.82
13312;BME280;34033;48.672;9.376;2023-02-22T10:19:23;98249.72;;;12.60;54.48
13312;BME280;34033;48.672;9.376;2023-02-22T10:24:55;98250.06;;;12.69;53.24
13312;BME280;34033;48.672;9.376;2023-02-22T10:27:32;98252.84;;;12.76;53.04
13312;BME280;34033;48.672;9.376;2023-02-22T10:30:22;98241.91;;;12.92;53.90
13312;BME280;34033;48.672;9.376;2023-02-22T10:32:53;98241.06;;;12.99;53.49
13312;BME280;34033;48.672;9.376;2023-02-22T10:35:26;98246.50;;;13.23;53.76
13312;BME280;34033;48.672;9.376;2023-02-22T10:37:58;98241.69;;;13.27;52.57
13312;BME280;34033;48.672;9.376;2023-02-22T10:40:26;98238.53;;;13.18;52.39
13312;BME280;34033;48.672;9.376;2023-02-22T10:43:05;98234.94;;;13.18;52.42
13312;BME280;34033;48.672;9.376;2023-02-22T10:45:33;98239.34;;;13.22;52.61
13312;BME280;34033;48.672;9.376;2023-02-22T10:48:08;98234.94;;;13.18;52.46
13312;BME280;34033;48.672;9.376;2023-02-22T10:50:38;98233.31;;;13.20;52.32
13312;BME280;34033;48.672;9.376;2023-02-22T10:53:06;98233.09;;;13.49;53.17
13312;BME280;34033;48.672;9.376;2023-02-22T10:55:31;98229.28;;;13.69;52.74
13312;BME280;34033;48.672;9.376;2023-02-22T10:58:07;98231.22;;;13.76;52.53
13312;BME280;34033;48.672;9.376;2023-02-22T11:00:35;98221.41;;;13.91;52.15
13312;BME280;34033;48.672;9.376;2023-02-22T11:05:33;98218.38;;;14.12;51.84
13312;BME280;34033;48.672;9.376;2023-02-22T11:08:29;98207.75;;;14.27;51.38
13312;BME280;34033;48.672;9.376;2023-02-22T11:11:00;98216.84;;;14.42;51.22
13312;BME280;34033;48.672;9.376;2023-02-22T11:13:55;98211.44;;;14.54;50.45
13312;BME280;34033;48.672;9.376;2023-02-22T11:16:28;98201.22;;;14.68;49.93
13312;BME280;34033;48.672;9.376;2023-02-22T11:19:15;98186.50;;;14.83;49.61
13312;BME280;34033;48.672;9.376;2023-02-22T11:21:45;98195.84;;;15.03;49.13
13312;BME280;34033;48.672;9.376;2023-02-22T11:24:13;98185.25;;;15.11;47.60
13312;BME280;34033;48.672;9.376;2023-02-22T11:26:42;98184.47;;;15.11;47.57
13312;BME280;34033;48.672;9.376;2023-02-22T11:29:12;98180.75;;;15.17;48.21
13312;BME280;34033;48.672;9.376;2023-02-22T11:31:41;98175.50;;;15.19;47.91
13312;BME280;34033;48.672;9.376;2023-02-22T11:34:25;98178.63;;;15.25;47.72
13312;BME280;34033;48.672;9.376;2023-02-22T11:36:51;98170.88;;;15.29;47.83
13312;BME280;34033;48.672;9.376;2023-02-22T11:39:24;98164.53;;;15.25;46.41
13312;BME280;34033;48.672;9.376;2023-02-22T11:41:49;98168.44;;;15.31;46.41
13312;BME280;34033;48.672;9.376;2023-02-22T11:44:28;98162.69;;;15.38;46.79
13312;BME280;34033;48.672;9.376;2023-02-22T11:46:56;98161.25;;;15.53;47.26
13312;BME280;34033;48.672;9.376;2023-02-22T11:49:33;98150.78;;;15.73;47.03
13312;BME280;34033;48.672;9.376;2023-02-22T11:52:24;98147.44;;;15.82;46.57
13312;BME280;34033;48.672;9.376;2023-02-22T12:03:13;98133.75;;;16.00;46.01
13312;BME280;34033;48.672;9.376;2023-02-22T12:19:34;98117.94;;;15.87;45.60
13312;BME280;34033;48.672;9.376;2023-02-22T12:22:08;98112.22;;;15.90;45.30
13312;BME280;34033;48.672;9.376;2023-02-22T12:24:42;98112.50;;;15.96;45.23
13312;BME280;34033;48.672;9.376;2023-02-22T12:27:27;98115.31;;;15.96;44.79
13312;BME280;34033;48.672;9.376;2023-02-22T12:30:00;98112.69;;;16.05;45.21
13312;BME280;34033;48.672;9.376;2023-02-22T12:32:37;98109.59;;;16.19;45.18
13312;BME280;34033;48.672;9.376;2023-02-22T12:35:18;98108.84;;;16.35;45.09
13312;BME280;34033;48.672;9.376;2023-02-22T12:37:52;98100.50;;;16.47;45.82
13312;BME280;34033;48.672;9.376;2023-02-22T12:40:23;98113.34;;;16.68;50.73
13312;BME280;34033;48.672;9.376;2023-02-22T12:42:57;98112.91;;;17.02;53.19
13312;BME280;34033;48.672;9.376;2023-02-22T12:45:51;98103.91;;;17.07;44.88
13312;BME280;34033;48.672;9.376;2023-02-22T12:51:02;98101.88;;;17.24;47.61
13312;BME280;34033;48.672;9.376;2023-02-22T12:53:34;98103.72;;;17.30;46.60
13312;BME280;34033;48.672;9.376;2023-02-22T12:58:53;98101.19;;;17.48;45.69
13312;BME280;34033;48.672;9.376;2023-02-22T13:01:26;98093.09;;;17.50;45.16
13312;BME280;34033;48.672;9.376;2023-02-22T13:03:54;98092.03;;;17.61;44.46
13312;BME280;34033;48.672;9.376;2023-02-22T13:06:39;98100.56;;;17.57;43.11
13312;BME280;34033;48.672;9.376;2023-02-22T13:14:48;98088.22;;;17.67;43.49
13312;BME280;34033;48.672;9.376;2023-02-22T13:20:17;98087.97;;;17.62;44.22
13312;BME280;34033;48.672;9.376;2023-02-22T13:22:49;98088.00;;;17.74;44.20
13312;BME280;34033;48.672;9.376;2023-02-22T13:25:30;98087.16;;;17.90;44.45
13312;BME280;34033;48.672;9.376;2023-02-22T13:31:20;98080.41;;;18.00;43.68
13312;BME280;34033;48.672;9.376;2023-02-22T13:42:21;98085.94;;;18.04;43.47
13312;BME280;34033;48.672;9.376;2023-02-22T13:50:51;98075.22;;;17.53;42.67
13312;BME280;34033;48.672;9.376;2023-02-22T13:53:25;98081.50;;;17.61;44.86
13312;BME280;34033;48.672;9.376;2023-02-22T13:55:56;98072.28;;;17.73;44.96
13312;BME280;34033;48.672;9.376;2023-02-22T13:58:23;98075.69;;;17.81;44.02
13312;BME280;34033;48.672;9.376;2023-02-22T14:05:58;98078.50;;;17.68;44.29
13312;BME280;34033;48.672;9.376;2023-02-22T14:11:05;98087.84;;;17.65;42.74
13312;BME280;34033;48.672;9.376;2023-02-22T14:16:30;98082.75;;;17.60;44.17
13312;BME280;34033;48.672;9.376;2023-02-22T14:21:31;98091.41;;;17.53;43.85
13312;BME280;34033;48.672;9.376;2023-02-22T14:24:06;98080.03;;;17.40;43.33
13312;BME280;34033;48.672;9.376;2023-02-22T14:26:34;98085.63;;;17.28;43.49
13312;BME280;34033;48.672;9.376;2023-02-22T14:29:14;98078.38;;;17.27;43.71
13312;BME280;34033;48.672;9.376;2023-02-22T14:34:46;98079.09;;;17.15;43.68
13312;BME280;34033;48.672;9.376;2023-02-22T14:37:10;98072.75;;;17.10;44.07
13312;BME280;34033;48.672;9.376;2023-02-22T14:39:41;98069.13;;;17.10;45.04
13312;BME280;34033;48.672;9.376;2023-02-22T14:47:29;98073.44;;;17.15;44.07
13312;BME280;34033;48.672;9.376;2023-02-22T14:50:22;98068.00;;;17.07;43.09
13312;BME280;34033;48.672;9.376;2023-02-22T14:52:55;98076.75;;;16.97;43.11
13312;BME280;34033;48.672;9.376;2023-02-22T14:55:24;98071.97;;;16.94;43.99
13312;BME280;34033;48.672;9.376;2023-02-22T14:58:11;98066.69;;;16.96;44.56
13312;BME280;34033;48.672;9.376;2023-02-22T15:00:47;98073.91;;;17.13;44.18
13312;BME280;34033;48.672;9.376;2023-02-22T15:03:31;98065.59;;;17.22;44.24
13312;BME280;34033;48.672;9.376;2023-02-22T15:06:17;98072.81;;;17.23;43.13
13312;BME280;34033;48.672;9.376;2023-02-22T15:08:44;98070.13;;;17.20;44.00
13312;BME280;34033;48.672;9.376;2023-02-22T15:11:25;98066.66;;;17.12;43.75
13312;BME280;34033;48.672;9.376;2023-02-22T15:13:55;98075.69;;;17.07;43.38
13312;BME280;34033;48.672;9.376;2023-02-22T15:16:24;98079.03;;;17.02;43.74
13312;BME280;34033;48.672;9.376;2023-02-22T15:18:55;98076.22;;;17.02;43.96
13312;BME280;34033;48.672;9.376;2023-02-22T15:21:23;98073.38;;;17.02;44.14
13312;BME280;34033;48.672;9.376;2023-02-22T15:23:52;98078.34;;;16.98;44.27
13312;BME280;34033;48.672;9.376;2023-02-22T15:28:57;98070.91;;;16.88;44.42
13312;BME280;34033;48.672;9.376;2023-02-22T15:33:56;98077.34;;;16.72;44.90
13312;BME280;34033;48.672;9.376;2023-02-22T15:36:27;98074.25;;;16.66;44.89
13312;BME280;34033;48.672;9.376;2023-02-22T15:38:55;98081.59;;;16.64;45.56